Time;durP1;ratioP1;P1;durP2;ratioP2;P2;SDS_P1;SDS_P2;PMS_P1;PMS_P2;Temp;Humidity;BMP_temperature;BMP_pressure;BME280_temperature;BME280_humidity;BME280_pressure;Samples;Min_cycle;Max_cycle;Signal;HPM_P1;HPM_P2
2023/08/08 00:00:13;;;;;;;3.00;1.73;;;;;;;;;;2531531;23;20129;-91
2023/08/08 00:01:13;;;;;;;2.78;1.27;;;;;;;;;;2526921;23;20003;-92
2023/08/08 00:02:14;;;;;;;1.77;1.40;;;;;;;;;;2521180;23;20010;-90
2023/08/08 00:03:14;;;;;;;2.10;1.40;;;;;;;;;;2535513;23;19994;-92
2023/08/08 00:04:14;;;;;;;2.33;1.40;;;;;;;;;;2531749;23;20076;-92
2023/08/08 00:05:15;;;;;;;2.17;1.88;;;;;;;;;;2536328;23;20001;-93
2023/08/08 00:06:16;;;;;;;2.47;1.20;;;;;;;;;;2532289;23;19998;-93
2023/08/08 00:07:16;;;;;;;2.08;1.40;;;;;;;;;;2531516;23;20065;-90
2023/08/08 00:08:17;;;;;;;1.30;1.02;;;;;;;;;;2548658;23;20125;-91
2023/08/08 00:09:17;;;;;;;1.92;1.20;;;;;;;;;;2531924;23;20041;-90
2023/08/08 00:10:18;;;;;;;2.25;1.40;;;;;;;;;;2536256;23;20397;-92
2023/08/08 00:11:18;;;;;;;2.78;1.40;;;;;;;;;;2543865;23;20075;-92
2023/08/08 00:12:19;;;;;;;1.83;1.13;;;;;;;;;;2548334;23;20451;-92
2023/08/08 00:13:19;;;;;;;1.10;0.98;;;;;;;;;;2535717;23;20010;-89
2023/08/08 00:14:20;;;;;;;0.77;0.77;;;;;;;;;;2542156;23;19990;-90
2023/08/08 00:15:20;;;;;;;1.85;0.90;;;;;;;;;;2536592;23;20025;-90
2023/08/08 00:16:21;;;;;;;2.42;1.23;;;;;;;;;;2531869;23;20002;-91
2023/08/08 00:17:21;;;;;;;1.50;0.90;;;;;;;;;;2536148;23;19998;-91
2023/08/08 00:18:22;;;;;;;1.75;1.10;;;;;;;;;;2528655;23;20472;-90
2023/08/08 00:19:22;;;;;;;1.38;1.00;;;;;;;;;;2528446;23;20093;-93
2023/08/08 00:20:23;;;;;;;3.65;0.90;;;;;;;;;;2544310;23;19997;-93
2023/08/08 00:21:23;;;;;;;2.35;1.00;;;;;;;;;;2532545;23;20053;-90
2023/08/08 00:22:23;;;;;;;1.50;1.00;;;;;;;;;;2522895;23;20034;-90
2023/08/08 00:23:24;;;;;;;2.33;1.00;;;;;;;;;;2536350;23;20342;-92
2023/08/08 00:24:25;;;;;;;1.98;1.25;;;;;;;;;;2532319;23;20069;-91
2023/08/08 00:25:26;;;;;;;2.13;1.10;;;;;;;;;;2536369;23;20475;-90
2023/08/08 00:26:27;;;;;;;1.13;1.00;;;;;;;;;;2090039;23;10464354;-91
2023/08/08 00:27:27;;;;;;;1.98;1.05;;;;;;;;;;2531080;23;19994;-92
2023/08/08 00:28:28;;;;;;;1.20;0.70;;;;;;;;;;2531538;23;19997;-90
2023/08/08 00:29:28;;;;;;;2.15;0.70;;;;;;;;;;2519694;23;20010;-91
2023/08/08 00:30:28;;;;;;;1.35;0.90;;;;;;;;;;2531257;23;20046;-91
2023/08/08 00:31:29;;;;;;;2.28;0.73;;;;;;;;;;2531527;23;20034;-91
2023/08/08 00:32:29;;;;;;;2.17;0.80;;;;;;;;;;2535175;23;19994;-91
2023/08/08 00:33:30;;;;;;;0.98;0.73;;;;;;;;;;2543452;23;19993;-90
2023/08/08 00:34:30;;;;;;;1.40;0.80;;;;;;;;;;2531374;23;20077;-90
2023/08/08 00:35:30;;;;;;;1.80;0.82;;;;;;;;;;2535787;23;20069;-91
2023/08/08 00:36:31;;;;;;;1.55;0.70;;;;;;;;;;2530342;23;19990;-88
2023/08/08 00:37:31;;;;;;;1.05;0.75;;;;;;;;;;2518924;23;20440;-90
2023/08/08 00:38:31;;;;;;;0.93;0.70;;;;;;;;;;2531440;23;20013;-90
2023/08/08 00:39:32;;;;;;;1.58;0.80;;;;;;;;;;2535400;23;20049;-92
2023/08/08 00:40:32;;;;;;;1.05;0.60;;;;;;;;;;2531565;23;20057;-91
2023/08/08 00:41:33;;;;;;;1.10;0.55;;;;;;;;;;2536132;23;20009;-92
2023/08/08 00:42:33;;;;;;;1.70;0.70;;;;;;;;;;2532013;23;19994;-93
2023/08/08 00:43:34;;;;;;;1.20;0.88;;;;;;;;;;2532020;23;20070;-91
2023/08/08 00:44:34;;;;;;;1.35;0.60;;;;;;;;;;2547508;23;20530;-94
2023/08/08 00:45:35;;;;;;;4.63;1.45;;;;;;;;;;2544205;23;20109;-92
2023/08/08 00:46:35;;;;;;;1.08;0.55;;;;;;;;;;2531613;23;19989;-92
2023/08/08 00:47:36;;;;;;;1.42;0.70;;;;;;;;;;2531986;23;20081;-92
2023/08/08 00:48:38;;;;;;;1.25;0.80;;;;;;;;;;2547563;23;20061;-91
2023/08/08 00:49:38;;;;;;;1.95;0.60;;;;;;;;;;2531861;23;19998;-92
2023/08/08 00:50:44;;;;;;;1.30;0.70;;;;;;;;;;2535896;23;20017;-91
2023/08/08 00:51:46;;;;;;;0.60;0.50;;;;;;;;;;2549046;23;20560;-92
2023/08/08 00:52:47;;;;;;;1.40;0.73;;;;;;;;;;2548938;23;20416;-92
2023/08/08 00:53:47;;;;;;;0.77;0.50;;;;;;;;;;2531833;23;20009;-92
2023/08/08 00:54:48;;;;;;;2.88;0.63;;;;;;;;;;2519611;23;20025;-92
2023/08/08 00:55:48;;;;;;;0.70;0.60;;;;;;;;;;2535596;23;20069;-92
2023/08/08 00:56:49;;;;;;;1.73;0.88;;;;;;;;;;2531457;23;20392;-90
2023/08/08 00:57:49;;;;;;;0.73;0.60;;;;;;;;;;2535198;23;20008;-92
2023/08/08 00:58:50;;;;;;;1.23;0.75;;;;;;;;;;2531029;23;19997;-92
2023/08/08 00:59:51;;;;;;;0.90;0.70;;;;;;;;;;2535534;23;20041;-91
2023/08/08 01:00:54;;;;;;;1.13;0.70;;;;;;;;;;2557220;23;19985;-90
2023/08/08 01:01:55;;;;;;;1.27;0.70;;;;;;;;;;2550691;23;20155;-92
2023/08/08 01:02:55;;;;;;;1.85;0.82;;;;;;;;;;2531828;23;20021;-92
2023/08/08 01:03:58;;;;;;;1.77;0.65;;;;;;;;;;2519931;23;20008;-91
2023/08/08 01:04:59;;;;;;;0.88;0.50;;;;;;;;;;2519867;23;20444;-91
2023/08/08 01:06:16;;;;;;;1.60;0.60;;;;;;;;;;2519483;23;20090;-92
2023/08/08 01:07:31;;;;;;;0.63;0.60;;;;;;;;;;2523190;23;20350;-90
2023/08/08 01:08:39;;;;;;;1.10;0.52;;;;;;;;;;2525445;23;20387;-91
2023/08/08 01:09:44;;;;;;;2.05;0.70;;;;;;;;;;2097759;23;10425731;-90
2023/08/08 01:10:46;;;;;;;1.02;0.70;;;;;;;;;;2540552;23;20011;-90
2023/08/08 01:11:48;;;;;;;1.77;0.60;;;;;;;;;;2532211;23;19997;-92
2023/08/08 01:12:53;;;;;;;0.65;0.50;;;;;;;;;;2519683;23;20021;-91
2023/08/08 01:13:54;;;;;;;1.20;0.80;;;;;;;;;;2536159;23;19998;-90
2023/08/08 01:14:56;;;;;;;1.30;0.50;;;;;;;;;;2531383;23;19997;-90
2023/08/08 01:15:57;;;;;;;1.15;0.73;;;;;;;;;;2537771;23;19994;-91
2023/08/08 01:16:59;;;;;;;1.67;0.80;;;;;;;;;;2542875;23;20006;-91
2023/08/08 01:17:59;;;;;;;1.30;0.60;;;;;;;;;;2547455;23;20002;-91
2023/08/08 01:19:00;;;;;;;0.90;0.70;;;;;;;;;;2541041;23;20010;-90
2023/08/08 01:20:05;;;;;;;1.38;0.80;;;;;;;;;;2531247;23;20104;-92
2023/08/08 01:21:08;;;;;;;1.52;0.50;;;;;;;;;;2530791;23;20416;-91
2023/08/08 01:22:16;;;;;;;1.42;0.73;;;;;;;;;;2531356;23;20486;-89
2023/08/08 01:23:28;;;;;;;0.90;0.60;;;;;;;;;;2531237;23;20052;-91
2023/08/08 01:24:30;;;;;;;1.58;0.60;;;;;;;;;;2533789;23;20302;-90
2023/08/08 01:25:30;;;;;;;0.90;0.70;;;;;;;;;;2547466;23;20004;-90
2023/08/08 01:26:32;;;;;;;0.63;0.55;;;;;;;;;;2547894;23;19996;-90
2023/08/08 01:27:32;;;;;;;0.90;0.60;;;;;;;;;;2548281;23;19993;-90
2023/08/08 01:28:36;;;;;;;1.05;0.55;;;;;;;;;;2547983;23;19993;-90
2023/08/08 01:29:37;;;;;;;0.73;0.55;;;;;;;;;;2548294;23;20000;-91
2023/08/08 01:30:37;;;;;;;0.85;0.65;;;;;;;;;;2530876;23;20082;-91
2023/08/08 01:31:38;;;;;;;1.05;0.80;;;;;;;;;;2534721;23;19994;-91
2023/08/08 01:32:38;;;;;;;1.08;0.60;;;;;;;;;;2548115;23;20052;-91
2023/08/08 01:33:39;;;;;;;1.35;0.73;;;;;;;;;;2548315;23;20256;-91
2023/08/08 01:34:40;;;;;;;0.60;0.50;;;;;;;;;;2547283;23;19993;-92
2023/08/08 01:35:44;;;;;;;0.63;0.47;;;;;;;;;;2547936;23;19989;-93
2023/08/08 01:36:49;;;;;;;1.20;0.80;;;;;;;;;;2530852;23;20001;-91
2023/08/08 01:37:54;;;;;;;1.75;0.80;;;;;;;;;;2519171;23;19999;-90
2023/08/08 01:39:03;;;;;;;0.57;0.43;;;;;;;;;;2535932;23;20000;-90
2023/08/08 01:40:06;;;;;;;0.90;0.60;;;;;;;;;;2530856;23;19993;-91
2023/08/08 01:41:07;;;;;;;1.90;0.82;;;;;;;;;;2530507;23;19997;-91
2023/08/08 01:42:09;;;;;;;1.85;0.80;;;;;;;;;;2518837;23;20417;-92
2023/08/08 01:43:09;;;;;;;0.85;0.70;;;;;;;;;;2518733;23;20018;-91
2023/08/08 01:44:11;;;;;;;1.40;0.55;;;;;;;;;;2534878;23;20353;-91
2023/08/08 01:45:12;;;;;;;0.90;0.50;;;;;;;;;;2531143;23;19997;-91
2023/08/08 01:46:12;;;;;;;1.35;0.75;;;;;;;;;;2535880;23;19998;-91
2023/08/08 01:47:13;;;;;;;1.85;0.60;;;;;;;;;;2558148;23;20048;-89
2023/08/08 01:48:13;;;;;;;1.67;0.70;;;;;;;;;;2532522;23;20424;-91
2023/08/08 01:49:14;;;;;;;0.50;0.45;;;;;;;;;;2535125;23;19998;-91
2023/08/08 01:50:14;;;;;;;0.77;0.40;;;;;;;;;;2547960;23;19998;-91
2023/08/08 01:51:15;;;;;;;2.55;0.60;;;;;;;;;;2530891;23;20396;-91
2023/08/08 01:52:15;;;;;;;1.65;0.57;;;;;;;;;;2535242;23;19994;-91
2023/08/08 01:53:16;;;;;;;0.88;0.70;;;;;;;;;;2531083;23;20030;-91
2023/08/08 01:54:16;;;;;;;1.58;0.80;;;;;;;;;;2530749;23;20004;-91
2023/08/08 01:55:17;;;;;;;1.77;0.68;;;;;;;;;;2547302;23;20407;-91
2023/08/08 01:56:17;;;;;;;0.90;0.70;;;;;;;;;;2530629;23;20021;-90
2023/08/08 01:57:17;;;;;;;3.35;0.80;;;;;;;;;;2535117;23;20352;-92
2023/08/08 01:58:18;;;;;;;1.65;0.80;;;;;;;;;;2547678;23;20032;-92
2023/08/08 01:59:18;;;;;;;3.83;0.90;;;;;;;;;;2542824;23;20001;-92
2023/08/08 02:00:19;;;;;;;1.63;0.95;;;;;;;;;;2530591;23;20283;-90
2023/08/08 02:01:19;;;;;;;0.80;0.60;;;;;;;;;;2534843;23;19993;-90
2023/08/08 02:02:20;;;;;;;4.50;0.70;;;;;;;;;;2543198;23;20454;-90
2023/08/08 02:03:20;;;;;;;0.70;0.60;;;;;;;;;;2530892;23;20005;-91
2023/08/08 02:04:21;;;;;;;0.73;0.60;;;;;;;;;;2518367;23;20053;-91
2023/08/08 02:05:21;;;;;;;1.38;0.70;;;;;;;;;;2535284;23;20052;-90
2023/08/08 02:06:21;;;;;;;2.45;0.73;;;;;;;;;;2547918;23;20141;-91
2023/08/08 02:07:22;;;;;;;1.20;0.82;;;;;;;;;;2530530;23;20001;-92
2023/08/08 02:08:22;;;;;;;1.88;0.85;;;;;;;;;;2518820;23;20189;-91
2023/08/08 02:09:23;;;;;;;1.02;0.60;;;;;;;;;;2534674;23;20018;-91
2023/08/08 02:10:23;;;;;;;1.13;1.00;;;;;;;;;;2548321;23;20017;-91
2023/08/08 02:12:33;;;;;;;2.28;1.10;;;;;;;;;;2553103;23;20305;-90
2023/08/08 02:13:34;;;;;;;7.38;1.00;;;;;;;;;;2543020;23;20017;-90
2023/08/08 02:14:34;;;;;;;1.55;1.02;;;;;;;;;;2531258;23;20495;-91
2023/08/08 02:15:35;;;;;;;1.67;1.10;;;;;;;;;;2547594;23;19989;-91
2023/08/08 02:16:35;;;;;;;1.67;0.90;;;;;;;;;;2547972;23;20115;-91
2023/08/08 02:17:37;;;;;;;1.45;1.10;;;;;;;;;;2542810;23;20009;-91
2023/08/08 02:18:40;;;;;;;1.92;1.00;;;;;;;;;;2547329;23;20359;-90
2023/08/08 02:19:41;;;;;;;4.78;1.50;;;;;;;;;;2543020;23;19990;-91
2023/08/08 02:20:41;;;;;;;2.72;1.00;;;;;;;;;;2530665;23;20089;-90
2023/08/08 02:21:41;;;;;;;2.25;1.10;;;;;;;;;;2546998;23;20498;-90
2023/08/08 02:22:42;;;;;;;1.33;0.98;;;;;;;;;;2547612;23;19993;-91
2023/08/08 02:23:42;;;;;;;1.50;1.05;;;;;;;;;;2543164;23;19990;-90
2023/08/08 02:24:43;;;;;;;1.15;0.90;;;;;;;;;;2546864;23;20075;-90
2023/08/08 02:25:44;;;;;;;1.90;1.15;;;;;;;;;;2107600;23;10254042;-91
2023/08/08 02:26:44;;;;;;;3.13;0.88;;;;;;;;;;2530608;23;20069;-92
2023/08/08 02:27:44;;;;;;;3.35;0.98;;;;;;;;;;2530598;23;19997;-92
2023/08/08 02:28:45;;;;;;;1.63;0.95;;;;;;;;;;2531015;23;19998;-91
2023/08/08 02:29:46;;;;;;;2.17;0.82;;;;;;;;;;2530650;23;20448;-91
2023/08/08 02:30:46;;;;;;;2.25;0.90;;;;;;;;;;2531076;23;19998;-90
2023/08/08 02:31:46;;;;;;;2.88;1.48;;;;;;;;;;2548419;23;20411;-90
2023/08/08 02:32:47;;;;;;;2.58;1.20;;;;;;;;;;2547936;23;20003;-90
2023/08/08 02:33:50;;;;;;;2.20;1.13;;;;;;;;;;2558816;23;20061;-91
2023/08/08 02:34:50;;;;;;;1.52;1.10;;;;;;;;;;2542916;23;20072;-91
2023/08/08 02:35:50;;;;;;;1.27;0.80;;;;;;;;;;2530838;23;20009;-91
2023/08/08 02:36:51;;;;;;;1.50;1.10;;;;;;;;;;2550828;23;19992;-90
2023/08/08 02:37:51;;;;;;;1.95;1.20;;;;;;;;;;2542616;23;20009;-92
2023/08/08 02:38:53;;;;;;;2.78;1.10;;;;;;;;;;2530946;23;20022;-90
2023/08/08 02:39:53;;;;;;;2.72;1.20;;;;;;;;;;2546929;23;20066;-91
2023/08/08 02:40:54;;;;;;;1.95;1.17;;;;;;;;;;2548072;23;20072;-92
2023/08/08 02:41:54;;;;;;;2.97;1.30;;;;;;;;;;2543037;23;20010;-91
2023/08/08 02:42:55;;;;;;;2.40;1.20;;;;;;;;;;2547513;23;20357;-92
2023/08/08 02:43:55;;;;;;;1.75;1.20;;;;;;;;;;2543228;23;20005;-91
2023/08/08 02:44:55;;;;;;;1.67;1.13;;;;;;;;;;2543403;23;20029;-90
2023/08/08 02:45:56;;;;;;;2.20;1.20;;;;;;;;;;2559464;23;20063;-91
2023/08/08 02:46:56;;;;;;;3.30;1.20;;;;;;;;;;2543236;23;20337;-92
2023/08/08 02:47:56;;;;;;;1.80;1.10;;;;;;;;;;2547541;23;19994;-91
2023/08/08 02:48:57;;;;;;;2.22;1.38;;;;;;;;;;2547719;23;19993;-91
2023/08/08 02:49:57;;;;;;;1.48;1.02;;;;;;;;;;2548083;23;20036;-91
2023/08/08 02:50:58;;;;;;;2.28;1.45;;;;;;;;;;2543164;23;20001;-91
2023/08/08 02:51:58;;;;;;;2.30;1.25;;;;;;;;;;2546953;23;20001;-90
2023/08/08 02:52:58;;;;;;;1.83;1.17;;;;;;;;;;2543106;23;20408;-91
2023/08/08 02:53:59;;;;;;;6.10;2.00;;;;;;;;;;2547221;23;20017;-91
2023/08/08 02:54:59;;;;;;;2.50;1.40;;;;;;;;;;2548065;23;19998;-91
2023/08/08 02:56:00;;;;;;;2.03;1.40;;;;;;;;;;2543281;23;20092;-89
2023/08/08 02:57:00;;;;;;;1.85;1.30;;;;;;;;;;2531025;23;20002;-90
2023/08/08 02:58:00;;;;;;;1.67;1.17;;;;;;;;;;2547434;23;19993;-90
2023/08/08 02:59:01;;;;;;;2.42;1.60;;;;;;;;;;2543047;23;20033;-91
2023/08/08 03:00:03;;;;;;;2.22;1.27;;;;;;;;;;2530849;23;19998;-90
2023/08/08 03:01:04;;;;;;;2.58;1.40;;;;;;;;;;2543992;23;20320;-91
2023/08/08 03:02:04;;;;;;;3.00;1.60;;;;;;;;;;2546772;23;20025;-91
2023/08/08 03:03:05;;;;;;;2.70;1.60;;;;;;;;;;2560878;23;20019;-90
2023/08/08 03:04:06;;;;;;;4.03;1.48;;;;;;;;;;2535602;23;20005;-91
2023/08/08 03:05:07;;;;;;;2.17;1.50;;;;;;;;;;2548182;23;20001;-91
2023/08/08 03:06:07;;;;;;;1.85;1.30;;;;;;;;;;2548911;23;20107;-91
2023/08/08 03:07:08;;;;;;;2.22;1.40;;;;;;;;;;2543646;23;20467;-90
2023/08/08 03:08:08;;;;;;;2.45;1.40;;;;;;;;;;2531478;23;20002;-91
2023/08/08 03:09:09;;;;;;;2.00;1.15;;;;;;;;;;2531646;23;20413;-90
2023/08/08 03:10:09;;;;;;;2.10;1.30;;;;;;;;;;2531339;23;19998;-91
2023/08/08 03:11:09;;;;;;;2.05;1.50;;;;;;;;;;2547834;23;20056;-91
2023/08/08 03:12:10;;;;;;;2.42;1.25;;;;;;;;;;2543372;23;20050;-91
2023/08/08 03:13:10;;;;;;;2.25;1.48;;;;;;;;;;2531320;23;20001;-90
2023/08/08 03:14:11;;;;;;;3.70;1.40;;;;;;;;;;2531635;23;20455;-91
2023/08/08 03:15:11;;;;;;;1.75;1.27;;;;;;;;;;2543612;23;20088;-90
2023/08/08 03:16:12;;;;;;;3.08;1.33;;;;;;;;;;2547819;23;20013;-92
2023/08/08 03:17:12;;;;;;;3.55;1.27;;;;;;;;;;2557224;23;20347;-90
2023/08/08 03:18:12;;;;;;;2.83;1.48;;;;;;;;;;2553185;23;20008;-90
2023/08/08 03:19:13;;;;;;;1.60;1.20;;;;;;;;;;2559808;23;20069;-90
2023/08/08 03:20:13;;;;;;;3.90;1.40;;;;;;;;;;2555652;23;20032;-91
2023/08/08 03:21:14;;;;;;;1.35;1.10;;;;;;;;;;2533331;23;20025;-90
2023/08/08 03:22:14;;;;;;;1.45;1.27;;;;;;;;;;2548291;23;20320;-90
2023/08/08 03:23:14;;;;;;;2.70;1.10;;;;;;;;;;2544210;23;20471;-90
2023/08/08 03:24:15;;;;;;;2.38;1.30;;;;;;;;;;2548159;23;20007;-91
2023/08/08 03:25:17;;;;;;;2.33;1.23;;;;;;;;;;2556530;23;20541;-90
2023/08/08 03:26:40;;;;;;;4.80;1.48;;;;;;;;;;2564751;23;19997;-96
2023/08/08 03:27:41;;;;;;;1.52;1.20;;;;;;;;;;2541466;23;20027;-91
2023/08/08 03:28:42;;;;;;;3.22;1.10;;;;;;;;;;2547373;23;20013;-90
2023/08/08 03:29:42;;;;;;;2.25;1.10;;;;;;;;;;2543292;23;20605;-91
2023/08/08 03:30:43;;;;;;;1.55;0.98;;;;;;;;;;2548159;23;20053;-92
2023/08/08 03:31:44;;;;;;;2.33;1.50;;;;;;;;;;2549135;23;19993;-91
2023/08/08 03:32:44;;;;;;;2.25;1.20;;;;;;;;;;2554038;23;19989;-91
2023/08/08 03:33:45;;;;;;;3.20;1.20;;;;;;;;;;2558963;23;19996;-90
2023/08/08 03:34:45;;;;;;;1.27;0.93;;;;;;;;;;2555579;23;20010;-91
2023/08/08 03:35:46;;;;;;;2.40;1.00;;;;;;;;;;2559416;23;19985;-91
2023/08/08 03:36:46;;;;;;;1.95;1.20;;;;;;;;;;2557088;23;20064;-90
2023/08/08 03:37:46;;;;;;;1.40;1.10;;;;;;;;;;2555499;23;20002;-90
2023/08/08 03:38:47;;;;;;;2.15;1.20;;;;;;;;;;2543823;23;20001;-90
2023/08/08 03:39:47;;;;;;;2.08;1.10;;;;;;;;;;2547811;23;20032;-91
2023/08/08 03:40:48;;;;;;;1.20;0.80;;;;;;;;;;2548855;23;20289;-91
2023/08/08 03:41:48;;;;;;;1.08;0.80;;;;;;;;;;2543958;23;20001;-91
2023/08/08 03:42:49;;;;;;;1.27;0.93;;;;;;;;;;2548356;23;20020;-91
2023/08/08 03:43:49;;;;;;;0.98;0.80;;;;;;;;;;2543908;23;20029;-93
2023/08/08 03:44:50;;;;;;;1.17;0.77;;;;;;;;;;2531262;23;19994;-91
2023/08/08 03:45:50;;;;;;;1.58;1.00;;;;;;;;;;2548240;23;20453;-91
2023/08/08 03:46:51;;;;;;;2.03;0.90;;;;;;;;;;2543425;23;20019;-91
2023/08/08 03:47:51;;;;;;;2.47;1.13;;;;;;;;;;2101694;23;10481524;-91
2023/08/08 03:48:52;;;;;;;2.13;0.90;;;;;;;;;;2113240;23;10139091;-92
2023/08/08 03:49:57;;;;;;;1.58;0.82;;;;;;;;;;2543564;23;19998;-91
2023/08/08 03:50:57;;;;;;;0.85;0.57;;;;;;;;;;2543786;23;19998;-90
2023/08/08 03:51:57;;;;;;;1.98;1.13;;;;;;;;;;2548029;23;20352;-90
2023/08/08 03:52:58;;;;;;;1.42;0.70;;;;;;;;;;2543178;23;20129;-90
2023/08/08 03:53:58;;;;;;;1.10;0.85;;;;;;;;;;2548149;23;20001;-92
2023/08/08 03:54:59;;;;;;;0.90;0.80;;;;;;;;;;2543839;23;20367;-91
2023/08/08 03:55:59;;;;;;;2.30;0.80;;;;;;;;;;2531843;23;20009;-91
2023/08/08 03:57:01;;;;;;;2.42;0.88;;;;;;;;;;2531764;23;19998;-90
2023/08/08 03:58:01;;;;;;;1.63;0.88;;;;;;;;;;2531047;23;20076;-91
2023/08/08 03:59:01;;;;;;;1.52;0.90;;;;;;;;;;2548254;23;20060;-90
2023/08/08 04:00:02;;;;;;;2.03;0.70;;;;;;;;;;2556672;23;20032;-91
2023/08/08 04:01:03;;;;;;;2.50;0.77;;;;;;;;;;2543510;23;19993;-90
2023/08/08 04:02:04;;;;;;;3.13;0.90;;;;;;;;;;2547912;23;20537;-92
2023/08/08 04:03:04;;;;;;;2.97;0.82;;;;;;;;;;2546321;23;20308;-91
2023/08/08 04:04:05;;;;;;;1.75;0.70;;;;;;;;;;2545548;23;20333;-92
2023/08/08 04:05:06;;;;;;;0.80;0.57;;;;;;;;;;2552625;23;19994;-91
2023/08/08 04:06:06;;;;;;;1.33;0.85;;;;;;;;;;2553618;23;19997;-91
2023/08/08 04:07:08;;;;;;;1.15;0.60;;;;;;;;;;2535681;23;19998;-91
2023/08/08 04:08:08;;;;;;;1.77;0.73;;;;;;;;;;2547589;23;20008;-91
2023/08/08 04:09:09;;;;;;;1.17;0.70;;;;;;;;;;2549041;23;20025;-91
2023/08/08 04:10:10;;;;;;;1.77;0.70;;;;;;;;;;2543905;23;20001;-90
2023/08/08 04:11:10;;;;;;;1.23;1.00;;;;;;;;;;2547422;23;19998;-92
2023/08/08 04:12:10;;;;;;;1.02;0.70;;;;;;;;;;2543870;23;20024;-90
2023/08/08 04:13:11;;;;;;;0.85;0.65;;;;;;;;;;2531536;23;20029;-91
2023/08/08 04:14:11;;;;;;;1.67;0.77;;;;;;;;;;2543320;23;20316;-90
2023/08/08 04:15:12;;;;;;;1.40;0.70;;;;;;;;;;2531543;23;20002;-90
2023/08/08 04:16:12;;;;;;;0.85;0.70;;;;;;;;;;2530957;23;20078;-90
2023/08/08 04:17:13;;;;;;;1.70;0.88;;;;;;;;;;2547371;23;20033;-91
2023/08/08 04:18:13;;;;;;;1.45;0.90;;;;;;;;;;2548818;23;20068;-91
2023/08/08 04:19:13;;;;;;;1.60;0.75;;;;;;;;;;2548786;23;20017;-90
2023/08/08 04:20:14;;;;;;;0.93;0.70;;;;;;;;;;2548102;23;20020;-90
2023/08/08 04:21:14;;;;;;;0.95;0.70;;;;;;;;;;2543853;23;20679;-90
2023/08/08 04:22:15;;;;;;;0.90;0.73;;;;;;;;;;2533415;23;20036;-91
2023/08/08 04:23:15;;;;;;;1.20;0.84;;;;;;;;;;2115138;23;10199879;-91
2023/08/08 04:24:16;;;;;;;1.55;0.88;;;;;;;;;;2550013;23;20033;-90
2023/08/08 04:25:16;;;;;;;2.50;1.30;;;;;;;;;;2530994;23;20021;-91
2023/08/08 04:26:17;;;;;;;1.70;1.10;;;;;;;;;;2548123;23;20032;-90
2023/08/08 04:27:17;;;;;;;2.55;1.08;;;;;;;;;;2543552;23;20079;-92
2023/08/08 04:28:18;;;;;;;1.00;0.70;;;;;;;;;;2531375;23;20002;-91
2023/08/08 04:29:18;;;;;;;2.80;0.95;;;;;;;;;;2543482;23;19997;-93
2023/08/08 04:30:19;;;;;;;1.17;0.90;;;;;;;;;;2532060;23;20137;-93
2023/08/08 04:31:20;;;;;;;0.85;0.70;;;;;;;;;;2104552;23;10336640;-92
2023/08/08 04:32:20;;;;;;;1.10;0.60;;;;;;;;;;2531601;23;20084;-91
2023/08/08 04:33:21;;;;;;;1.67;0.70;;;;;;;;;;2532121;23;20008;-92
2023/08/08 04:34:21;;;;;;;3.42;0.70;;;;;;;;;;2548072;23;19997;-91
2023/08/08 04:35:21;;;;;;;1.30;0.73;;;;;;;;;;2548326;23;20037;-90
2023/08/08 04:36:22;;;;;;;1.38;0.70;;;;;;;;;;2543656;23;20060;-89
2023/08/08 04:37:22;;;;;;;1.98;0.90;;;;;;;;;;2530936;23;20010;-91
2023/08/08 04:38:23;;;;;;;2.67;0.85;;;;;;;;;;2531665;23;20013;-91
2023/08/08 04:39:23;;;;;;;1.30;0.90;;;;;;;;;;2543834;23;20372;-92
2023/08/08 04:40:23;;;;;;;2.25;0.75;;;;;;;;;;2531134;23;19994;-90
2023/08/08 04:41:24;;;;;;;1.00;0.70;;;;;;;;;;2531419;23;20395;-91
2023/08/08 04:42:24;;;;;;;2.33;0.70;;;;;;;;;;2543552;23;20105;-92
2023/08/08 04:43:25;;;;;;;1.00;0.80;;;;;;;;;;2543570;23;19998;-92
2023/08/08 04:44:25;;;;;;;2.30;0.93;;;;;;;;;;2531582;23;20009;-94
2023/08/08 04:45:27;;;;;;;1.92;0.82;;;;;;;;;;2531254;23;19998;-90
2023/08/08 04:46:27;;;;;;;1.23;0.88;;;;;;;;;;2543579;23;20001;-91
2023/08/08 04:47:28;;;;;;;3.05;0.90;;;;;;;;;;2530937;23;20073;-90
2023/08/08 04:48:28;;;;;;;3.03;1.00;;;;;;;;;;2531568;23;20373;-91
2023/08/08 04:49:28;;;;;;;3.78;0.80;;;;;;;;;;2548147;23;20005;-89
2023/08/08 04:50:29;;;;;;;1.88;0.75;;;;;;;;;;2543064;23;20080;-90
2023/08/08 04:51:29;;;;;;;0.70;0.63;;;;;;;;;;2535765;23;20033;-91
2023/08/08 04:52:30;;;;;;;1.45;0.90;;;;;;;;;;2539455;23;20100;-90
2023/08/08 04:53:30;;;;;;;1.90;0.82;;;;;;;;;;2532490;23;19997;-91
2023/08/08 04:54:31;;;;;;;1.98;0.80;;;;;;;;;;2547825;23;20507;-91
2023/08/08 04:55:31;;;;;;;2.55;0.98;;;;;;;;;;2543368;23;20033;-91
2023/08/08 04:56:31;;;;;;;1.90;0.80;;;;;;;;;;2547390;23;20093;-91
2023/08/08 04:57:32;;;;;;;1.20;0.55;;;;;;;;;;2555205;23;20051;-92
2023/08/08 04:58:32;;;;;;;3.47;0.75;;;;;;;;;;2543331;23;20351;-91
2023/08/08 04:59:34;;;;;;;2.28;0.77;;;;;;;;;;2531748;23;19990;-92
2023/08/08 05:00:35;;;;;;;2.15;0.80;;;;;;;;;;2548237;23;20057;-90
2023/08/08 05:01:35;;;;;;;1.23;0.90;;;;;;;;;;2545513;23;20004;-91
2023/08/08 05:02:36;;;;;;;2.17;1.02;;;;;;;;;;2550542;23;20330;-91
2023/08/08 05:03:36;;;;;;;2.67;1.20;;;;;;;;;;2544454;23;20064;-90
2023/08/08 05:04:37;;;;;;;1.15;0.80;;;;;;;;;;2547787;23;20073;-91
2023/08/08 05:05:38;;;;;;;6.22;1.40;;;;;;;;;;2544269;23;19997;-90
2023/08/08 05:06:39;;;;;;;2.38;1.13;;;;;;;;;;2548523;23;20005;-90
2023/08/08 05:07:39;;;;;;;0.85;0.70;;;;;;;;;;2543717;23;20451;-90
2023/08/08 05:08:39;;;;;;;1.00;0.90;;;;;;;;;;2548276;23;19990;-90
2023/08/08 05:09:40;;;;;;;1.70;1.33;;;;;;;;;;2548889;23;20027;-90
2023/08/08 05:10:40;;;;;;;2.38;0.70;;;;;;;;;;2548939;23;19993;-92
2023/08/08 05:11:41;;;;;;;0.95;0.80;;;;;;;;;;2544155;23;20242;-90
2023/08/08 05:12:42;;;;;;;2.22;0.77;;;;;;;;;;2536166;23;20037;-89
2023/08/08 05:13:43;;;;;;;4.82;1.05;;;;;;;;;;2532075;23;19994;-91
2023/08/08 05:14:43;;;;;;;1.35;0.80;;;;;;;;;;2549434;23;20013;-91
2023/08/08 05:15:43;;;;;;;3.33;1.10;;;;;;;;;;2556794;23;19996;-91
2023/08/08 05:16:44;;;;;;;1.48;0.90;;;;;;;;;;2555158;23;20008;-91
2023/08/08 05:17:44;;;;;;;1.88;0.90;;;;;;;;;;2554451;23;20005;-91
2023/08/08 05:18:45;;;;;;;1.00;0.90;;;;;;;;;;2546631;23;20455;-90
2023/08/08 05:19:45;;;;;;;2.17;0.80;;;;;;;;;;2551127;23;19996;-90
2023/08/08 05:20:46;;;;;;;3.33;1.05;;;;;;;;;;2557616;23;20319;-90
2023/08/08 05:21:46;;;;;;;2.47;1.00;;;;;;;;;;2562998;23;20053;-90
2023/08/08 05:22:47;;;;;;;3.83;1.38;;;;;;;;;;2545481;23;20001;-90
2023/08/08 05:23:48;;;;;;;2.75;0.85;;;;;;;;;;2532956;23;20005;-91
2023/08/08 05:24:48;;;;;;;1.25;1.05;;;;;;;;;;2546604;23;20013;-91
2023/08/08 05:25:48;;;;;;;2.17;0.80;;;;;;;;;;2543580;23;20088;-90
2023/08/08 05:26:55;;;;;;;5.45;1.20;;;;;;;;;;2531334;23;20042;-90
2023/08/08 05:27:55;;;;;;;1.80;0.90;;;;;;;;;;2547593;23;20435;-92
2023/08/08 05:28:56;;;;;;;1.30;0.90;;;;;;;;;;2548494;23;20013;-91
2023/08/08 05:30:04;;;;;;;2.28;0.82;;;;;;;;;;2543705;23;20473;-90
2023/08/08 05:31:04;;;;;;;1.88;0.80;;;;;;;;;;2547756;23;20023;-91
2023/08/08 05:32:06;;;;;;;1.90;0.75;;;;;;;;;;2544432;23;20439;-90
2023/08/08 05:33:07;;;;;;;4.60;1.23;;;;;;;;;;2543537;23;20010;-90
2023/08/08 05:34:07;;;;;;;2.55;0.80;;;;;;;;;;2531303;23;20001;-92
2023/08/08 05:35:08;;;;;;;1.63;0.60;;;;;;;;;;2547482;23;20370;-91
2023/08/08 05:36:08;;;;;;;1.60;0.80;;;;;;;;;;2543229;23;20119;-89
2023/08/08 05:37:09;;;;;;;3.05;1.23;;;;;;;;;;2533872;23;20009;-92
2023/08/08 05:38:14;;;;;;;1.52;0.80;;;;;;;;;;2292679;23;10217309;-90
2023/08/08 05:39:14;;;;;;;1.20;0.82;;;;;;;;;;2516101;23;20294;-92
2023/08/08 05:40:14;;;;;;;1.63;1.00;;;;;;;;;;2530789;23;20008;-91
2023/08/08 05:41:15;;;;;;;0.95;0.68;;;;;;;;;;2535608;23;19998;-90
2023/08/08 05:42:15;;;;;;;1.42;0.80;;;;;;;;;;2536392;23;20064;-91
2023/08/08 05:43:18;;;;;;;3.33;0.70;;;;;;;;;;2537163;23;20340;-91
2023/08/08 05:44:19;;;;;;;0.85;0.63;;;;;;;;;;2533003;23;20053;-92
2023/08/08 05:45:19;;;;;;;2.08;0.98;;;;;;;;;;2520123;23;20069;-92
2023/08/08 05:46:19;;;;;;;1.52;0.90;;;;;;;;;;2536852;23;20021;-88
2023/08/08 05:47:20;;;;;;;2.00;0.85;;;;;;;;;;2537267;23;20012;-90
2023/08/08 05:48:20;;;;;;;1.63;1.13;;;;;;;;;;2531452;23;20044;-92
2023/08/08 05:49:21;;;;;;;1.30;0.80;;;;;;;;;;2519396;23;19994;-89
2023/08/08 05:50:22;;;;;;;1.85;0.80;;;;;;;;;;2535264;23;19998;-92
2023/08/08 05:51:22;;;;;;;1.58;0.85;;;;;;;;;;2531763;23;20030;-89
2023/08/08 05:52:22;;;;;;;1.48;0.85;;;;;;;;;;2542697;23;20078;-90
2023/08/08 05:53:23;;;;;;;1.30;0.70;;;;;;;;;;2542697;23;20136;-89
2023/08/08 05:54:23;;;;;;;1.15;0.73;;;;;;;;;;2546965;23;20010;-91
2023/08/08 05:55:27;;;;;;;3.33;1.00;;;;;;;;;;2542428;23;20002;-92
2023/08/08 05:56:35;;;;;;;1.73;0.80;;;;;;;;;;2536589;23;20417;-91
2023/08/08 05:57:37;;;;;;;1.58;0.93;;;;;;;;;;2536212;23;20006;-92
2023/08/08 05:58:37;;;;;;;1.73;0.98;;;;;;;;;;2536227;23;20000;-90
2023/08/08 05:59:38;;;;;;;1.45;0.85;;;;;;;;;;2531083;23;19990;-91
2023/08/08 06:00:42;;;;;;;2.35;0.98;;;;;;;;;;2531334;23;20079;-93
2023/08/08 06:01:44;;;;;;;1.15;0.85;;;;;;;;;;2519512;23;20313;-92
2023/08/08 06:02:44;;;;;;;0.90;0.70;;;;;;;;;;2519328;23;20042;-91
2023/08/08 06:03:46;;;;;;;1.52;0.82;;;;;;;;;;2534901;23;20056;-91
2023/08/08 06:04:46;;;;;;;1.83;0.88;;;;;;;;;;2535633;23;20348;-90
2023/08/08 06:05:47;;;;;;;3.15;0.70;;;;;;;;;;2535865;23;19998;-92
2023/08/08 06:06:48;;;;;;;1.75;0.80;;;;;;;;;;2531147;23;20042;-92